Time;durP1;ratioP1;P1;durP2;ratioP2;P2;SDS_P1;SDS_P2;PMS_P1;PMS_P2;Temp;Humidity;BMP_temperature;BMP_pressure;BME280_temperature;BME280_humidity;BME280_pressure;Samples;Min_cycle;Max_cycle;Signal;HPM_P1;HPM_P2
2023/06/17 00:08:02;;;;;;;7.45;2.95;;;10.90;99.50;;;;;;21053072;28;20074;-47
2023/06/17 00:18:05;;;;;;;4.65;2.85;;;11.00;98.90;;;;;;21066345;28;20439;-48
2023/06/17 00:28:06;;;;;;;5.80;3.38;;;11.40;98.40;;;;;;21068318;28;20377;-46
2023/06/17 00:38:08;;;;;;;4.22;3.05;;;11.50;98.80;;;;;;21068725;28;20048;-47
2023/06/17 00:48:11;;;;;;;4.55;2.88;;;11.30;98.40;;;;;;21067452;28;20489;-47
2023/06/17 00:58:13;;;;;;;9.15;3.28;;;11.20;98.50;;;;;;21067292;28;20065;-48
2023/06/17 01:08:26;;;;;;;4.82;3.17;;;10.90;99.90;;;;;;21066122;28;20435;-46
2023/06/17 01:18:31;;;;;;;5.43;3.30;;;10.60;99.90;;;;;;21061524;28;20039;-46
2023/06/17 01:28:33;;;;;;;5.85;3.72;;;10.50;99.90;;;;;;21064414;28;20097;-45
2023/06/17 01:38:51;;;;;;;7.63;3.10;;;10.40;99.90;;;;;;21063774;28;20052;-47
2023/06/17 01:48:54;;;;;;;5.13;3.40;;;10.20;99.90;;;;;;21063409;28;20036;-43
2023/06/17 01:58:56;;;;;;;6.88;3.60;;;9.90;99.90;;;;;;21044906;28;20032;-47
2023/06/17 02:08:58;;;;;;;4.95;3.05;;;10.00;99.90;;;;;;21061037;28;20036;-47
2023/06/17 02:19:02;;;;;;;4.55;3.15;;;10.10;99.90;;;;;;21027050;28;20028;-44
2023/06/17 02:29:04;;;;;;;6.38;3.28;;;10.00;99.90;;;;;;21059523;28;20161;-48
2023/06/17 02:39:06;;;;;;;5.47;3.30;;;9.90;99.90;;;;;;21043654;28;20452;-46
2023/06/17 02:49:08;;;;;;;5.15;3.55;;;9.80;99.90;;;;;;21049277;28;20044;-48
2023/06/17 02:59:14;;;;;;;6.68;3.42;;;9.60;99.90;;;;;;21058117;28;20036;-44
2023/06/17 03:09:16;;;;;;;5.28;3.63;;;10.10;99.90;;;;;;21057722;28;20024;-48
2023/06/17 03:19:18;;;;;;;5.00;3.53;;;10.20;99.90;;;;;;21056468;28;20032;-49
2023/06/17 03:29:21;;;;;;;6.07;3.78;;;9.90;99.90;;;;;;21056126;28;20133;-44
2023/06/17 03:39:25;;;;;;;6.97;3.40;;;9.60;99.90;;;;;;21051525;28;20482;-50
2023/06/17 03:49:28;;;;;;;5.65;3.33;;;9.40;99.90;;;;;;21053949;28;20032;-44
2023/06/17 03:59:30;;;;;;;8.50;3.58;;;9.50;99.90;;;;;;21070773;28;20040;-45
2023/06/17 04:09:32;;;;;;;4.78;3.40;;;9.90;99.90;;;;;;21053051;28;20028;-45
2023/06/17 04:19:37;;;;;;;6.28;3.70;;;10.40;99.90;;;;;;21070381;28;20028;-45
2023/06/17 04:29:39;;;;;;;7.90;3.85;;;10.30;99.90;;;;;;21051371;28;20044;-45
2023/06/17 04:39:42;;;;;;;5.60;3.88;;;10.20;99.90;;;;;;21069107;28;20183;-45
2023/06/17 04:49:44;;;;;;;6.60;3.90;;;10.10;99.90;;;;;;21049863;28;20078;-45
2023/06/17 04:59:45;;;;;;;5.50;3.65;;;10.50;99.90;;;;;;21048684;28;20028;-45
2023/06/17 05:09:47;;;;;;;5.40;4.22;;;10.60;99.90;;;;;;21048049;28;20453;-48
2023/06/17 05:19:50;;;;;;;7.57;4.18;;;10.70;99.90;;;;;;21065242;28;20361;-45
2023/06/17 05:29:53;;;;;;;5.80;3.55;;;11.00;99.90;;;;;;21064697;28;20040;-45
2023/06/17 05:39:55;;;;;;;8.90;3.97;;;11.20;99.90;;;;;;21046285;28;20044;-46
2023/06/17 05:49:56;;;;;;;4.60;3.67;;;11.40;99.90;;;;;;21063508;28;20048;-50
2023/06/17 05:59:58;;;;;;;4.78;3.33;;;11.70;99.90;;;;;;21062791;28;20032;-44
2023/06/17 06:10:03;;;;;;;4.78;3.15;;;12.70;98.70;;;;;;21060819;28;20081;-44
2023/06/17 06:20:06;;;;;;;5.78;3.75;;;15.40;95.00;;;;;;21043535;28;20090;-54
2023/06/17 06:30:09;;;;;;;8.18;4.00;;;19.20;93.80;;;;;;21060763;28;20039;-49
2023/06/17 06:40:15;;;;;;;4.35;3.80;;;21.60;87.30;;;;;;21056287;28;20044;-46
2023/06/17 06:50:17;;;;;;;4.28;3.40;;;22.70;83.60;;;;;;21057073;28;20097;-52
2023/06/17 07:00:21;;;;;;;4.60;3.78;;;23.10;82.50;;;;;;21058405;28;20059;-47
2023/06/17 07:10:24;;;;;;;4.60;3.50;;;23.30;83.90;;;;;;21056511;28;20047;-55
2023/06/17 07:20:26;;;;;;;4.90;3.88;;;24.60;83.70;;;;;;21055583;28;20105;-47
2023/06/17 07:30:30;;;;;;;5.53;3.90;;;25.40;77.00;;;;;;21053934;28;20057;-56
2023/06/17 07:40:33;;;;;;;4.90;4.40;;;26.10;79.00;;;;;;21055812;28;20040;-56
2023/06/17 07:50:34;;;;;;;5.03;4.53;;;26.70;73.90;;;;;;21054794;28;20036;-51
2023/06/17 08:00:36;;;;;;;5.18;4.68;;;26.70;75.50;;;;;;21072067;28;20039;-55
2023/06/17 08:10:38;;;;;;;5.80;5.20;;;26.60;72.00;;;;;;21071086;28;20032;-56
2023/06/17 08:20:39;;;;;;;5.70;5.20;;;26.20;70.90;;;;;;21070721;28;20425;-51
2023/06/17 08:30:41;;;;;;;5.63;5.03;;;26.00;65.40;;;;;;21068409;28;20043;-56
2023/06/17 08:40:47;;;;;;;5.30;4.80;;;25.60;69.30;;;;;;21068255;28;20443;-56
2023/06/17 08:50:50;;;;;;;6.78;4.85;;;25.60;68.60;;;;;;21063814;28;20032;-56
2023/06/17 09:00:51;;;;;;;59.08;7.70;;;25.10;66.90;;;;;;21066313;28;20469;-55
2023/06/17 09:10:53;;;;;;;4.65;4.18;;;24.90;74.60;;;;;;21064494;28;20500;-54
2023/06/17 09:20:57;;;;;;;4.97;4.47;;;25.60;73.60;;;;;;21066001;28;20053;-50
2023/06/17 09:31:03;;;;;;;5.88;4.55;;;25.70;74.70;;;;;;21046477;28;20035;-53
2023/06/17 09:41:05;;;;;;;6.43;4.68;;;25.70;69.90;;;;;;21062631;28;20040;-46
2023/06/17 09:51:12;;;;;;;5.03;4.53;;;26.10;75.10;;;;;;21060342;28;20073;-50
2023/06/17 10:01:14;;;;;;;5.72;4.53;;;26.20;72.50;;;;;;21061844;28;20032;-46
2023/06/17 10:11:19;;;;;;;5.28;4.50;;;26.60;76.40;;;;;;21043743;28;20085;-55
2023/06/17 10:21:25;;;;;;;6.00;4.50;;;27.10;77.70;;;;;;21060582;28;20078;-54
2023/06/17 10:31:28;;;;;;;4.93;4.40;;;27.10;77.90;;;;;;21061716;28;20036;-51
2023/06/17 10:41:38;;;;;;;5.30;4.35;;;27.00;76.70;;;;;;21060612;28;20036;-54
2023/06/17 10:51:49;;;;;;;7.20;5.13;;;26.70;81.80;;;;;;21061231;28;20370;-45
2023/06/17 11:01:51;;;;;;;5.75;4.90;;;27.20;78.90;;;;;;21060807;28;20028;-53
2023/06/17 11:11:56;;;;;;;5.35;4.57;;;27.40;79.70;;;;;;21068567;28;20480;-55
2023/06/17 11:22:04;;;;;;;4.90;4.20;;;27.20;76.00;;;;;;21074115;28;20477;-45
2023/06/17 11:32:07;;;;;;;6.53;4.22;;;26.70;82.40;;;;;;21070109;28;20446;-50
2023/06/17 11:42:10;;;;;;;6.18;3.92;;;27.00;79.60;;;;;;21073524;28;20044;-54
2023/06/17 11:52:13;;;;;;;5.28;4.70;;;27.10;78.90;;;;;;21073302;28;20040;-54
2023/06/17 12:02:16;;;;;;;6.88;5.50;;;26.90;79.00;;;;;;21070195;28;20027;-54
2023/06/17 12:12:38;;;;;;;6.30;5.28;;;27.10;83.20;;;;;;21070708;28;20040;-53
2023/06/17 12:22:39;;;;;;;6.78;5.63;;;27.40;81.60;;;;;;21066912;28;20085;-52
2023/06/17 12:32:42;;;;;;;23.30;6.57;;;26.10;80.80;;;;;;21049786;28;20109;-52
2023/06/17 12:42:44;;;;;;;11.43;7.30;;;25.60;82.70;;;;;;21068023;28;20048;-44
2023/06/17 12:52:49;;;;;;;7.05;5.65;;;25.70;82.70;;;;;;21046060;28;20032;-52
2023/06/17 13:02:51;;;;;;;8.35;6.18;;;24.80;80.30;;;;;;21082245;28;20032;-52
2023/06/17 13:12:53;;;;;;;9.40;6.88;;;23.10;82.50;;;;;;21065670;28;20032;-52
2023/06/17 13:22:55;;;;;;;7.28;6.07;;;23.60;87.50;;;;;;21065599;28;20032;-55
2023/06/17 13:32:57;;;;;;;8.38;6.15;;;25.90;80.50;;;;;;21064669;28;20089;-53
2023/06/17 13:42:58;;;;;;;9.15;6.57;;;24.90;79.50;;;;;;21063532;28;20467;-49
2023/06/17 13:53:00;;;;;;;14.50;6.80;;;23.30;84.10;;;;;;21059949;28;20036;-53
2023/06/17 14:03:02;;;;;;;7.57;6.15;;;21.80;86.10;;;;;;21062059;28;20046;-49
2023/06/17 14:13:05;;;;;;;7.32;5.32;;;21.10;87.60;;;;;;21062516;28;20036;-52
2023/06/17 14:23:07;;;;;;;9.73;6.78;;;20.90;90.50;;;;;;21044119;28;20036;-49
2023/06/17 14:33:09;;;;;;;6.95;6.05;;;20.60;89.10;;;;;;21043681;28;20032;-50
2023/06/17 14:43:11;;;;;;;11.00;5.15;;;21.40;90.20;;;;;;21062765;28;20040;-54
2023/06/17 14:53:32;;;;;;;7.00;5.10;;;24.40;83.00;;;;;;21078274;28;20020;-49
2023/06/17 15:03:34;;;;;;;7.72;6.97;;;26.30;77.70;;;;;;21073522;28;20492;-51
2023/06/17 15:13:36;;;;;;;8.02;6.82;;;27.20;75.80;;;;;;21075625;28;20028;-52
2023/06/17 15:23:37;;;;;;;8.00;7.20;;;27.10;74.00;;;;;;21075460;28;20032;-53
2023/06/17 15:33:39;;;;;;;8.60;7.75;;;26.70;74.30;;;;;;21074350;28;20389;-53
2023/06/17 15:43:41;;;;;;;7.72;6.80;;;26.00;74.20;;;;;;21073074;28;20040;-52
2023/06/17 15:53:43;;;;;;;6.72;6.00;;;25.40;76.00;;;;;;21073024;28;20032;-54
2023/06/17 16:03:44;;;;;;;7.13;6.30;;;24.80;76.40;;;;;;21069735;28;20035;-45
2023/06/17 16:13:47;;;;;;;7.80;7.00;;;23.70;80.10;;;;;;21070478;28;20032;-50
2023/06/17 16:23:49;;;;;;;9.43;7.05;;;22.10;82.70;;;;;;21070391;28;20035;-51
2023/06/17 16:33:51;;;;;;;10.15;6.53;;;21.30;87.20;;;;;;21066902;28;20028;-52
2023/06/17 16:43:53;;;;;;;7.53;5.88;;;20.80;90.00;;;;;;21067893;28;20044;-54
2023/06/17 16:53:55;;;;;;;7.68;6.47;;;20.60;87.50;;;;;;21068067;28;20032;-53
2023/06/17 17:04:02;;;;;;;8.20;6.63;;;20.00;92.60;;;;;;21065823;28;20036;-51
2023/06/17 17:14:04;;;;;;;14.02;10.27;;;19.10;93.20;;;;;;21066946;28;20038;-45
2023/06/17 17:24:06;;;;;;;9.88;7.82;;;18.40;91.70;;;;;;21065516;28;20035;-50
2023/06/17 17:34:08;;;;;;;10.52;7.68;;;17.70;95.20;;;;;;21081534;28;20044;-48
2023/06/17 17:44:09;;;;;;;13.00;7.97;;;17.00;96.70;;;;;;21063995;28;20044;-50
2023/06/17 17:54:11;;;;;;;12.07;8.63;;;16.30;97.90;;;;;;21062075;28;20388;-51
2023/06/17 18:04:13;;;;;;;12.38;8.70;;;15.80;98.90;;;;;;21062789;28;20028;-52
2023/06/17 18:14:15;;;;;;;11.68;7.40;;;15.50;99.50;;;;;;21044054;28;20385;-51
2023/06/17 18:24:16;;;;;;;12.90;8.15;;;15.30;99.50;;;;;;21061095;28;20085;-49
2023/06/17 18:34:18;;;;;;;14.80;9.05;;;15.20;99.20;;;;;;21059309;28;20040;-50
2023/06/17 18:44:20;;;;;;;11.73;8.88;;;15.10;99.20;;;;;;21060215;28;21012;-49
2023/06/17 18:54:22;;;;;;;27.92;16.92;;;15.00;99.40;;;;;;21059065;28;20032;-53
2023/06/17 19:04:24;;;;;;;13.57;9.32;;;15.10;99.80;;;;;;21058386;28;20489;-53
2023/06/17 19:14:26;;;;;;;37.38;25.17;;;15.00;99.30;;;;;;21056685;28;20028;-48
2023/06/17 19:24:28;;;;;;;19.20;12.77;;;15.00;99.90;;;;;;21059412;28;20036;-48
2023/06/17 19:34:29;;;;;;;14.63;11.65;;;14.70;99.90;;;;;;21066962;28;20039;-50
2023/06/17 19:44:33;;;;;;;23.50;15.43;;;14.60;99.90;;;;;;21070355;28;20040;-52
2023/06/17 19:54:35;;;;;;;14.80;9.52;;;14.50;99.90;;;;;;21072330;28;20032;-52
2023/06/17 20:04:36;;;;;;;17.25;11.80;;;14.30;99.90;;;;;;21070386;28;20040;-53
2023/06/17 20:14:38;;;;;;;19.88;14.75;;;14.30;99.90;;;;;;21051112;28;20082;-51
2023/06/17 20:24:40;;;;;;;17.67;15.02;;;14.40;99.90;;;;;;21069219;28;20058;-52
2023/06/17 20:34:42;;;;;;;19.15;14.57;;;14.50;99.90;;;;;;21066914;28;20036;-50
2023/06/17 20:44:43;;;;;;;16.42;12.43;;;14.60;99.90;;;;;;21065814;28;20040;-52
2023/06/17 20:54:45;;;;;;;14.10;11.13;;;14.50;99.90;;;;;;21066217;28;20089;-49
2023/06/17 21:04:47;;;;;;;16.85;13.00;;;14.20;99.90;;;;;;21065906;28;20036;-54
2023/06/17 21:14:49;;;;;;;20.13;14.23;;;14.10;99.90;;;;;;21064980;28;20028;-50
2023/06/17 21:24:51;;;;;;;17.50;13.32;;;14.10;99.90;;;;;;21064600;28;20028;-49
2023/06/17 21:34:52;;;;;;;15.75;12.07;;;14.00;99.90;;;;;;21064236;28;20550;-51
2023/06/17 21:44:54;;;;;;;19.33;13.07;;;13.80;99.90;;;;;;21062579;28;20094;-53
2023/06/17 21:54:55;;;;;;;17.73;12.95;;;13.60;99.90;;;;;;21063355;28;20028;-51
2023/06/17 22:04:57;;;;;;;18.40;13.07;;;13.20;99.90;;;;;;21061959;28;20036;-52
2023/06/17 22:15:00;;;;;;;20.65;12.82;;;12.90;99.90;;;;;;21061989;28;20074;-50
2023/06/17 22:25:02;;;;;;;24.73;13.13;;;12.80;99.90;;;;;;21043792;28;20040;-52
2023/06/17 22:35:04;;;;;;;19.13;13.90;;;12.70;99.90;;;;;;21061527;28;20098;-52
2023/06/17 22:45:06;;;;;;;18.75;13.35;;;12.60;99.90;;;;;;21060197;28;20028;-48
2023/06/17 22:55:08;;;;;;;20.88;14.43;;;12.60;99.90;;;;;;21042773;28;20051;-53
2023/06/17 23:05:10;;;;;;;20.25;14.85;;;12.40;99.90;;;;;;21064086;28;20036;-50
2023/06/17 23:15:11;;;;;;;23.70;14.95;;;12.20;99.90;;;;;;21075490;28;20157;-53
2023/06/17 23:25:15;;;;;;;22.13;14.98;;;12.30;99.90;;;;;;21090493;28;20036;-52
2023/06/17 23:35:17;;;;;;;20.15;14.23;;;12.40;99.90;;;;;;21074335;28;20519;-53
2023/06/17 23:45:19;;;;;;;21.65;14.70;;;12.60;99.90;;;;;;21073307;28;20036;-52
2023/06/17 23:55:21;;;;;;;19.13;14.23;;;12.50;99.90;;;;;;21072699;28;20191;-52
